createdAt,value
2022-10-24T00:00:12.188Z,14.97
2022-10-24T00:02:57.592Z,15.01
2022-10-24T00:05:45.349Z,15.00
2022-10-24T00:08:30.729Z,14.97
2022-10-24T00:11:19.361Z,14.89
2022-10-24T00:14:04.579Z,14.86
2022-10-24T00:16:49.507Z,14.86
2022-10-24T00:19:35.034Z,14.84
2022-10-24T00:22:20.834Z,14.78
2022-10-24T00:25:06.753Z,14.72
2022-10-24T00:27:51.920Z,14.72
2022-10-24T00:30:36.874Z,14.68
2022-10-24T00:33:22.232Z,14.67
2022-10-24T00:36:14.543Z,14.63
2022-10-24T00:38:59.378Z,14.63
2022-10-24T00:41:44.337Z,14.65
2022-10-24T00:44:32.628Z,14.62
2022-10-24T00:47:20.365Z,14.58
2022-10-24T00:50:14.082Z,14.61
2022-10-24T00:52:59.354Z,14.57
2022-10-24T00:55:48.000Z,14.57
2022-10-24T00:58:37.432Z,14.61
2022-10-24T01:01:24.206Z,14.63
2022-10-24T01:04:13.077Z,14.67
2022-10-24T01:07:08.062Z,14.69
2022-10-24T01:10:07.715Z,14.70
2022-10-24T01:13:19.573Z,14.76
2022-10-24T01:16:12.318Z,14.77
2022-10-24T01:19:11.739Z,14.79
2022-10-24T01:22:01.135Z,14.79
2022-10-24T01:25:04.932Z,14.79
2022-10-24T01:28:12.974Z,14.75
2022-10-24T01:31:27.466Z,14.76
2022-10-24T01:34:25.118Z,14.70
2022-10-24T01:37:19.859Z,14.60
2022-10-24T01:40:32.164Z,14.61
2022-10-24T01:43:22.098Z,14.72
2022-10-24T01:46:12.886Z,14.72
2022-10-24T01:49:07.315Z,14.68
2022-10-24T01:51:57.090Z,14.60
2022-10-24T01:54:44.627Z,14.56
2022-10-24T01:57:32.321Z,14.55
2022-10-24T02:00:20.634Z,14.57
2022-10-24T02:03:13.418Z,14.61
2022-10-24T02:06:28.359Z,14.60
2022-10-24T02:09:17.426Z,14.60
2022-10-24T02:12:03.278Z,14.61
2022-10-24T02:14:57.742Z,14.63
2022-10-24T02:17:43.083Z,14.60
2022-10-24T02:20:34.040Z,14.56
2022-10-24T02:23:30.931Z,14.47
2022-10-24T02:26:42.654Z,14.45
2022-10-24T02:29:31.535Z,14.44
2022-10-24T02:32:25.138Z,14.46
2022-10-24T02:35:12.828Z,14.45
2022-10-24T02:38:04.346Z,14.52
2022-10-24T02:40:52.107Z,14.47
2022-10-24T02:43:40.622Z,14.37
2022-10-24T02:46:27.003Z,14.32
2022-10-24T02:49:13.043Z,14.29
2022-10-24T02:51:58.981Z,14.27
2022-10-24T02:54:44.397Z,14.21
2022-10-24T02:57:29.132Z,14.20
2022-10-24T03:00:14.599Z,14.18
2022-10-24T03:02:59.981Z,14.09
2022-10-24T03:05:44.728Z,14.00
2022-10-24T03:08:30.050Z,14.01
2022-10-24T03:11:15.097Z,14.02
2022-10-24T03:14:00.889Z,13.99
2022-10-24T03:16:46.175Z,14.00
2022-10-24T03:19:31.467Z,14.11
2022-10-24T03:22:16.322Z,14.16
2022-10-24T03:25:01.827Z,14.18
2022-10-24T03:27:47.292Z,14.23
2022-10-24T03:30:32.561Z,14.32
2022-10-24T03:33:17.638Z,14.30
2022-10-24T03:36:02.881Z,14.28
2022-10-24T03:38:48.014Z,14.29
2022-10-24T03:41:32.821Z,14.24
2022-10-24T03:44:17.735Z,14.24
2022-10-24T03:47:02.642Z,14.26
2022-10-24T03:49:47.706Z,14.16
2022-10-24T03:52:32.808Z,14.14
2022-10-24T03:55:18.258Z,14.19
2022-10-24T03:58:03.737Z,14.22
2022-10-24T04:00:49.102Z,14.20
2022-10-24T04:03:34.278Z,14.20
2022-10-24T04:06:19.258Z,14.20
2022-10-24T04:09:04.675Z,14.19
2022-10-24T04:11:49.788Z,14.21
2022-10-24T04:14:35.225Z,14.20
2022-10-24T04:17:20.327Z,14.17
2022-10-24T04:20:06.594Z,14.17
2022-10-24T04:22:51.559Z,14.13
2022-10-24T04:25:36.954Z,14.16
2022-10-24T04:28:21.890Z,14.16
2022-10-24T04:31:07.202Z,14.16
2022-10-24T04:33:52.398Z,13.95
2022-10-24T04:36:37.485Z,13.94
2022-10-24T04:39:22.200Z,13.90
2022-10-24T04:42:07.015Z,13.82
2022-10-24T04:44:52.514Z,13.80
2022-10-24T04:47:37.426Z,13.78
2022-10-24T04:50:23.546Z,13.71
2022-10-24T04:53:09.087Z,13.70
2022-10-24T04:55:54.131Z,13.68
2022-10-24T04:58:39.398Z,13.66
2022-10-24T05:01:24.410Z,13.69
2022-10-24T05:04:09.907Z,13.74
2022-10-24T05:06:54.833Z,13.76
2022-10-24T05:09:39.921Z,13.88
2022-10-24T05:12:24.769Z,14.10
2022-10-24T05:15:11.154Z,14.28
2022-10-24T05:17:57.330Z,14.47
2022-10-24T05:20:42.499Z,14.64
2022-10-24T05:23:27.826Z,14.74
2022-10-24T05:26:12.771Z,14.77
2022-10-24T05:28:58.022Z,14.86
2022-10-24T05:31:43.395Z,14.91
2022-10-24T05:34:28.322Z,14.92
2022-10-24T05:37:14.104Z,14.93
2022-10-24T05:39:59.005Z,14.94
2022-10-24T05:42:44.307Z,14.89
2022-10-24T05:45:29.645Z,14.90
2022-10-24T05:48:16.224Z,14.99
2022-10-24T05:51:01.323Z,15.05
2022-10-24T05:53:46.392Z,15.11
2022-10-24T05:56:31.810Z,15.17
2022-10-24T05:59:16.754Z,15.17
2022-10-24T06:02:02.311Z,15.17
2022-10-24T06:04:48.161Z,15.16
2022-10-24T06:07:33.764Z,15.14
2022-10-24T06:10:19.047Z,15.09
2022-10-24T06:13:04.168Z,15.11
2022-10-24T06:15:49.181Z,15.17
2022-10-24T06:18:35.364Z,15.22
2022-10-24T06:21:20.641Z,15.24
2022-10-24T06:24:05.497Z,15.20
2022-10-24T06:26:50.547Z,15.24
2022-10-24T06:29:36.404Z,15.27
2022-10-24T06:32:21.335Z,15.30
2022-10-24T06:35:07.429Z,15.33
2022-10-24T06:37:52.574Z,15.38
2022-10-24T06:40:38.051Z,15.43
2022-10-24T06:43:23.678Z,15.45
2022-10-24T06:46:10.781Z,15.56
2022-10-24T06:48:56.039Z,15.56
2022-10-24T06:51:41.591Z,15.49
2022-10-24T06:54:30.079Z,15.50
2022-10-24T06:57:15.676Z,15.51
2022-10-24T07:00:00.674Z,15.44
2022-10-24T07:02:48.310Z,15.46
2022-10-24T07:05:33.469Z,15.46
2022-10-24T07:08:18.310Z,15.46
2022-10-24T07:11:03.853Z,15.58
2022-10-24T07:13:49.173Z,15.60
2022-10-24T07:16:34.228Z,15.62
2022-10-24T07:19:19.165Z,15.66
2022-10-24T07:22:04.176Z,15.70
2022-10-24T07:24:55.758Z,15.75
2022-10-24T07:27:41.048Z,15.79
2022-10-24T07:30:26.083Z,15.86
2022-10-24T07:33:11.633Z,15.97
2022-10-24T07:35:56.636Z,16.00
2022-10-24T07:38:41.855Z,16.06
2022-10-24T07:41:29.609Z,16.11
2022-10-24T07:44:15.065Z,16.17
2022-10-24T07:47:00.461Z,16.17
2022-10-24T07:49:45.836Z,16.26
2022-10-24T07:52:31.354Z,16.33
2022-10-24T07:55:16.783Z,16.34
2022-10-24T07:58:02.253Z,16.44
2022-10-24T08:00:47.222Z,16.51
2022-10-24T08:03:32.172Z,16.58
2022-10-24T08:06:21.305Z,16.55
2022-10-24T08:09:06.338Z,16.61
2022-10-24T08:11:51.417Z,16.68
2022-10-24T08:14:41.021Z,16.76
2022-10-24T08:17:26.304Z,16.85
2022-10-24T08:20:11.773Z,16.96
2022-10-24T08:22:56.739Z,17.11
2022-10-24T08:25:41.590Z,17.28
2022-10-24T08:28:26.427Z,17.41
2022-10-24T08:31:17.156Z,17.54
2022-10-24T08:34:02.291Z,17.60
2022-10-24T08:36:49.049Z,17.67
2022-10-24T08:39:35.700Z,17.73
2022-10-24T08:42:23.368Z,17.80
2022-10-24T08:45:17.024Z,17.79
2022-10-24T08:48:09.366Z,17.69
2022-10-24T08:51:02.493Z,17.61
2022-10-24T08:53:49.081Z,17.60
2022-10-24T08:56:34.161Z,17.55
2022-10-24T08:59:20.680Z,17.58
2022-10-24T09:02:12.706Z,17.70
2022-10-24T09:05:21.494Z,17.76
2022-10-24T09:08:23.024Z,17.96
2022-10-24T09:11:16.477Z,17.83
2022-10-24T09:14:07.370Z,17.76
2022-10-24T09:17:25.613Z,17.69
2022-10-24T09:20:29.668Z,17.57
2022-10-24T09:23:16.284Z,17.47
2022-10-24T09:26:05.126Z,17.40
2022-10-24T09:28:50.162Z,17.28
2022-10-24T09:31:35.590Z,17.33
2022-10-24T09:34:21.266Z,17.36
2022-10-24T09:37:06.358Z,17.33
2022-10-24T09:40:19.075Z,17.20
2022-10-24T09:43:18.674Z,17.30
2022-10-24T09:46:10.110Z,17.30
2022-10-24T09:48:59.241Z,17.15
2022-10-24T09:51:47.888Z,17.16
2022-10-24T09:54:35.302Z,17.06
2022-10-24T09:57:20.090Z,17.13
2022-10-24T10:00:05.873Z,17.20
2022-10-24T10:03:23.869Z,17.09
2022-10-24T10:06:18.461Z,17.08
2022-10-24T10:09:14.690Z,17.12
2022-10-24T10:12:03.331Z,17.20
2022-10-24T10:14:48.822Z,17.06
2022-10-24T10:17:34.249Z,17.09
2022-10-24T10:20:26.899Z,17.03
2022-10-24T10:23:25.865Z,17.01
2022-10-24T10:26:17.111Z,17.02
2022-10-24T10:29:05.086Z,17.12
2022-10-24T10:31:58.221Z,17.15
2022-10-24T10:34:49.965Z,17.14
2022-10-24T10:37:42.800Z,17.07
2022-10-24T10:40:40.169Z,17.11
2022-10-24T10:43:44.000Z,17.05
2022-10-24T10:46:46.586Z,17.13
2022-10-24T10:49:37.069Z,17.08
2022-10-24T10:52:31.693Z,17.07
2022-10-24T10:55:16.959Z,17.06
2022-10-24T10:58:01.970Z,17.01
2022-10-24T11:01:09.298Z,17.01
2022-10-24T11:04:01.875Z,17.01
2022-10-24T11:06:52.095Z,17.01
2022-10-24T11:09:42.981Z,16.98
2022-10-24T11:12:39.190Z,16.94
2022-10-24T11:15:26.660Z,17.00
2022-10-24T11:18:21.772Z,16.99
2022-10-24T11:21:09.774Z,17.05
2022-10-24T11:24:03.801Z,17.10
2022-10-24T11:27:06.880Z,17.12
2022-10-24T11:30:04.419Z,17.09
2022-10-24T11:32:56.346Z,17.03
2022-10-24T11:35:59.786Z,17.07
2022-10-24T11:38:51.319Z,17.32
2022-10-24T11:41:55.415Z,17.32
2022-10-24T11:45:07.448Z,17.31
2022-10-24T11:48:02.715Z,17.27
2022-10-24T11:50:58.784Z,17.19
2022-10-24T11:53:51.346Z,17.07
2022-10-24T11:56:43.920Z,17.12
2022-10-24T11:59:29.792Z,17.18
2022-10-24T12:02:43.954Z,17.28
2022-10-24T12:06:10.128Z,17.31
2022-10-24T12:09:26.968Z,17.28
2022-10-24T12:12:41.302Z,17.23
2022-10-24T12:15:41.616Z,17.24
2022-10-24T12:18:32.986Z,17.17
2022-10-24T12:21:26.163Z,17.08
2022-10-24T12:24:41.049Z,16.88
2022-10-24T12:27:36.988Z,16.83
2022-10-24T12:30:24.192Z,16.83
2022-10-24T12:33:23.543Z,16.78
2022-10-24T12:36:09.545Z,16.52
2022-10-24T12:38:54.661Z,16.21
2022-10-24T12:41:41.156Z,16.08
2022-10-24T12:44:29.475Z,15.93
2022-10-24T12:47:37.195Z,16.03
2022-10-24T12:50:22.258Z,16.06
2022-10-24T12:53:38.255Z,16.12
2022-10-24T12:56:23.935Z,16.22
2022-10-24T12:59:27.470Z,16.32
2022-10-24T13:02:15.654Z,16.56
2022-10-24T13:05:10.029Z,16.76
2022-10-24T13:08:04.061Z,16.68
2022-10-24T13:11:08.111Z,16.85
2022-10-24T13:14:08.734Z,16.84
2022-10-24T13:17:18.083Z,16.85
2022-10-24T13:20:22.353Z,16.87
2022-10-24T13:23:20.338Z,16.74
2022-10-24T13:26:06.024Z,16.83
2022-10-24T13:28:51.291Z,16.76
2022-10-24T13:31:36.143Z,16.67
2022-10-24T13:34:52.296Z,16.63
2022-10-24T13:37:50.038Z,16.61
2022-10-24T13:40:35.808Z,16.57
2022-10-24T13:43:21.263Z,16.54
2022-10-24T13:46:13.085Z,16.51
2022-10-24T13:49:00.331Z,16.61
2022-10-24T13:51:52.275Z,16.67
2022-10-24T13:54:38.779Z,16.65
2022-10-24T13:57:31.441Z,16.69
2022-10-24T14:00:39.804Z,16.63
2022-10-24T14:03:27.756Z,16.63
2022-10-24T14:06:13.249Z,16.65
2022-10-24T14:09:07.311Z,16.75
2022-10-24T14:11:53.474Z,16.84
2022-10-24T14:14:39.741Z,16.90
2022-10-24T14:17:31.995Z,16.83
2022-10-24T14:20:21.951Z,16.77
2022-10-24T14:23:25.005Z,16.72
2022-10-24T14:26:17.539Z,16.71
2022-10-24T14:29:02.887Z,16.62
2022-10-24T14:31:55.984Z,16.54
2022-10-24T14:34:41.217Z,16.62
2022-10-24T14:37:35.661Z,16.61
2022-10-24T14:40:20.788Z,16.64
2022-10-24T14:43:09.642Z,16.57
2022-10-24T14:46:09.325Z,16.54
2022-10-24T14:48:54.163Z,16.53
2022-10-24T14:51:40.493Z,16.51
2022-10-24T14:54:31.809Z,16.58
2022-10-24T14:57:21.188Z,16.72
2022-10-24T15:00:08.131Z,16.63
2022-10-24T15:02:56.746Z,16.54
2022-10-24T15:05:41.818Z,16.51
2022-10-24T15:08:34.635Z,16.55
2022-10-24T15:11:21.909Z,16.53
2022-10-24T15:14:36.006Z,16.54
2022-10-24T15:17:32.762Z,16.56
2022-10-24T15:20:25.104Z,16.48
2022-10-24T15:23:21.735Z,16.43
2022-10-24T15:26:27.694Z,16.40
2022-10-24T15:29:13.220Z,16.40
2022-10-24T15:31:59.621Z,16.34
2022-10-24T15:34:44.430Z,16.31
2022-10-24T15:37:29.641Z,16.20
2022-10-24T15:40:20.416Z,16.21
2022-10-24T15:43:05.511Z,16.16
2022-10-24T15:45:50.535Z,16.02
2022-10-24T15:48:37.698Z,15.63
2022-10-24T15:51:24.544Z,15.29
2022-10-24T15:54:11.894Z,15.18
2022-10-24T15:56:59.475Z,15.03
2022-10-24T15:59:46.536Z,14.93
2022-10-24T16:02:33.721Z,14.67
2022-10-24T16:05:22.896Z,14.65
2022-10-24T16:08:13.223Z,14.55
2022-10-24T16:10:58.340Z,14.57
2022-10-24T16:13:44.076Z,14.46
2022-10-24T16:16:29.132Z,14.35
2022-10-24T16:19:14.456Z,14.34
2022-10-24T16:21:59.910Z,14.46
2022-10-24T16:24:44.885Z,14.39
2022-10-24T16:27:29.788Z,14.30
2022-10-24T16:30:16.717Z,14.26
2022-10-24T16:33:02.966Z,14.20
2022-10-24T16:35:48.291Z,14.09
2022-10-24T16:38:32.970Z,14.02
2022-10-24T16:41:20.685Z,13.95
2022-10-24T16:44:05.818Z,13.88
2022-10-24T16:46:53.131Z,13.82
2022-10-24T16:49:38.305Z,13.82
2022-10-24T16:52:23.308Z,13.82
2022-10-24T16:55:11.216Z,13.76
2022-10-24T16:57:57.277Z,13.73
2022-10-24T17:00:42.665Z,13.70
2022-10-24T17:03:27.817Z,13.65
2022-10-24T17:06:13.593Z,13.65
2022-10-24T17:08:58.570Z,13.62
2022-10-24T17:11:45.990Z,13.62
2022-10-24T17:14:36.672Z,13.62
2022-10-24T17:17:21.768Z,13.52
2022-10-24T17:20:07.818Z,13.44
2022-10-24T17:22:53.697Z,13.48
2022-10-24T17:25:39.429Z,13.47
2022-10-24T17:28:24.868Z,13.44
2022-10-24T17:31:10.169Z,13.39
2022-10-24T17:33:55.529Z,13.41
2022-10-24T17:36:45.760Z,13.42
2022-10-24T17:39:40.373Z,13.42
2022-10-24T17:42:28.308Z,13.38
2022-10-24T17:45:24.015Z,13.36
2022-10-24T17:48:10.158Z,13.34
2022-10-24T17:50:58.088Z,13.33
2022-10-24T17:53:43.493Z,13.33
2022-10-24T17:56:28.885Z,13.35
2022-10-24T17:59:13.890Z,13.31
2022-10-24T18:01:59.200Z,13.27
2022-10-24T18:04:44.343Z,13.24
2022-10-24T18:07:29.791Z,13.33
2022-10-24T18:10:16.186Z,13.39
2022-10-24T18:13:01.649Z,13.38
2022-10-24T18:15:46.752Z,13.39
2022-10-24T18:18:32.074Z,13.41
2022-10-24T18:21:20.254Z,13.43
2022-10-24T18:24:07.459Z,13.46
2022-10-24T18:26:52.812Z,13.48
2022-10-24T18:29:37.825Z,13.51
2022-10-24T18:32:23.222Z,13.44
2022-10-24T18:35:08.886Z,13.42
2022-10-24T18:37:54.389Z,13.40
2022-10-24T18:40:39.942Z,13.36
2022-10-24T18:43:25.351Z,13.38
2022-10-24T18:46:11.740Z,13.38
2022-10-24T18:48:57.660Z,13.42
2022-10-24T18:51:57.820Z,13.39
2022-10-24T18:55:02.252Z,13.44
2022-10-24T18:57:49.735Z,13.48
2022-10-24T19:00:35.149Z,13.41
2022-10-24T19:03:35.598Z,13.35
2022-10-24T19:06:26.005Z,13.31
2022-10-24T19:09:19.954Z,13.35
2022-10-24T19:12:05.566Z,13.35
2022-10-24T19:14:51.345Z,13.36
2022-10-24T19:17:36.586Z,13.30
2022-10-24T19:20:23.516Z,13.27
2022-10-24T19:23:13.466Z,13.16
2022-10-24T19:25:58.730Z,13.19
2022-10-24T19:28:44.097Z,13.18
2022-10-24T19:31:29.511Z,13.22
2022-10-24T19:34:14.460Z,13.26
2022-10-24T19:36:59.711Z,13.22
2022-10-24T19:39:44.975Z,13.33
2022-10-24T19:42:30.274Z,13.45
2022-10-24T19:45:15.716Z,13.51
2022-10-24T19:48:01.098Z,13.59
2022-10-24T19:50:46.446Z,13.63
2022-10-24T19:53:35.592Z,13.68
2022-10-24T19:56:25.017Z,13.64
2022-10-24T19:59:10.736Z,13.65
2022-10-24T20:01:55.654Z,13.58
2022-10-24T20:04:41.918Z,13.55
2022-10-24T20:07:27.755Z,13.52
2022-10-24T20:10:13.246Z,13.44
2022-10-24T20:12:58.683Z,13.34
2022-10-24T20:15:43.556Z,13.31
2022-10-24T20:18:32.721Z,13.27
2022-10-24T20:21:18.721Z,13.10
2022-10-24T20:24:04.176Z,13.12
2022-10-24T20:26:50.291Z,13.10
2022-10-24T20:29:36.071Z,13.02
2022-10-24T20:32:21.195Z,12.94
2022-10-24T20:35:07.475Z,12.92
2022-10-24T20:37:52.664Z,12.86
2022-10-24T20:40:37.845Z,12.83
2022-10-24T20:43:22.688Z,12.77
2022-10-24T20:46:10.474Z,12.76
2022-10-24T20:48:55.697Z,12.68
2022-10-24T20:51:41.651Z,12.68
2022-10-24T20:54:26.819Z,12.66
2022-10-24T20:57:12.177Z,12.61
2022-10-24T20:59:57.510Z,12.51
2022-10-24T21:02:42.468Z,12.57
2022-10-24T21:05:28.009Z,12.58
2022-10-24T21:08:13.310Z,12.56
2022-10-24T21:10:58.221Z,12.53
2022-10-24T21:13:43.995Z,12.51
2022-10-24T21:16:29.894Z,12.49
2022-10-24T21:19:14.728Z,12.42
2022-10-24T21:21:59.621Z,12.41
2022-10-24T21:24:44.446Z,12.35
2022-10-24T21:27:29.441Z,12.30
2022-10-24T21:30:14.872Z,12.31
2022-10-24T21:33:00.320Z,12.26
2022-10-24T21:35:45.564Z,12.23
2022-10-24T21:38:31.021Z,12.21
2022-10-24T21:41:17.082Z,12.21
2022-10-24T21:44:01.932Z,12.24
2022-10-24T21:46:47.228Z,12.20
2022-10-24T21:49:32.056Z,12.18
2022-10-24T21:52:17.051Z,12.18
2022-10-24T21:55:01.903Z,12.21
2022-10-24T21:57:46.804Z,12.26
2022-10-24T22:00:32.635Z,12.31
2022-10-24T22:03:19.704Z,12.31
2022-10-24T22:06:04.593Z,12.28
2022-10-24T22:08:51.491Z,12.36
2022-10-24T22:11:37.486Z,12.38
2022-10-24T22:14:22.804Z,12.40
2022-10-24T22:17:07.901Z,12.49
2022-10-24T22:19:53.411Z,12.52
2022-10-24T22:22:38.365Z,12.57
2022-10-24T22:25:23.583Z,12.53
2022-10-24T22:28:08.752Z,12.55
2022-10-24T22:30:54.305Z,12.63
2022-10-24T22:33:40.642Z,12.71
2022-10-24T22:36:56.327Z,12.73
2022-10-24T22:39:41.547Z,12.83
2022-10-24T22:42:26.977Z,12.83
2022-10-24T22:45:12.798Z,12.86
2022-10-24T22:48:16.207Z,12.90
2022-10-24T22:51:01.475Z,12.88
2022-10-24T22:53:46.861Z,12.94
2022-10-24T22:56:32.300Z,12.98
2022-10-24T22:59:17.616Z,13.00
2022-10-24T23:02:28.128Z,12.95
2022-10-24T23:08:40.228Z,12.84
2022-10-24T23:11:25.342Z,12.83
2022-10-24T23:14:11.640Z,12.88
2022-10-24T23:16:58.909Z,12.86
2022-10-24T23:19:45.053Z,12.90
2022-10-24T23:22:33.012Z,12.89
2022-10-24T23:25:18.881Z,12.88
2022-10-24T23:28:27.276Z,12.84
2022-10-24T23:31:12.793Z,12.79
2022-10-24T23:33:58.132Z,12.76
2022-10-24T23:36:44.470Z,12.81
2022-10-24T23:39:33.959Z,12.81
2022-10-24T23:42:19.174Z,12.72
2022-10-24T23:45:04.855Z,12.72
2022-10-24T23:48:17.585Z,12.79
2022-10-24T23:51:11.896Z,12.73
2022-10-24T23:53:57.447Z,12.75
2022-10-24T23:56:42.671Z,12.77
2022-10-24T23:59:28.683Z,12.83
